createdAt,value
2023-05-08T00:00:08.156Z,37.95
2023-05-08T00:02:34.936Z,33.80
2023-05-08T00:05:01.807Z,31.48
2023-05-08T00:07:28.576Z,36.20
2023-05-08T00:09:55.305Z,28.30
2023-05-08T00:12:21.953Z,28.70
2023-05-08T00:14:48.555Z,27.45
2023-05-08T00:17:15.351Z,30.55
2023-05-08T00:19:41.954Z,28.33
2023-05-08T00:22:08.572Z,33.70
2023-05-08T00:24:35.224Z,29.48
2023-05-08T00:27:01.828Z,32.35
2023-05-08T00:29:28.793Z,33.83
2023-05-08T00:31:55.492Z,34.58
2023-05-08T00:34:22.264Z,36.92
2023-05-08T00:36:48.905Z,37.30
2023-05-08T00:39:15.666Z,37.47
2023-05-08T00:41:42.619Z,33.13
2023-05-08T00:44:09.409Z,32.58
2023-05-08T00:46:36.913Z,30.70
2023-05-08T00:49:05.645Z,32.47
2023-05-08T00:51:33.810Z,34.15
2023-05-08T00:54:00.677Z,37.58
2023-05-08T00:56:29.396Z,35.90
2023-05-08T00:58:56.984Z,40.20
2023-05-08T01:01:24.211Z,37.17
2023-05-08T01:03:51.117Z,37.33
2023-05-08T01:06:17.860Z,39.17
2023-05-08T01:08:45.902Z,34.55
2023-05-08T01:11:21.781Z,45.33
2023-05-08T01:14:10.034Z,40.70
2023-05-08T01:16:48.599Z,49.42
2023-05-08T01:19:52.752Z,58.40
2023-05-08T01:22:47.110Z,73.25
2023-05-08T01:25:40.552Z,66.38
2023-05-08T01:28:19.523Z,76.05
2023-05-08T01:30:55.371Z,75.25
2023-05-08T01:33:33.470Z,87.40
2023-05-08T01:36:09.459Z,96.85
2023-05-08T01:38:52.358Z,105.18
2023-05-08T01:41:27.836Z,114.13
2023-05-08T01:44:10.942Z,122.70
2023-05-08T01:46:37.772Z,128.32
2023-05-08T01:49:17.616Z,120.68
2023-05-08T01:51:48.596Z,137.07
2023-05-08T01:54:19.786Z,132.43
2023-05-08T01:56:48.891Z,142.95
2023-05-08T01:59:20.530Z,138.55
2023-05-08T02:01:49.353Z,144.80
2023-05-08T02:04:17.167Z,144.93
2023-05-08T02:06:44.576Z,148.38
2023-05-08T02:09:12.534Z,144.05
2023-05-08T02:11:42.431Z,147.43
2023-05-08T02:14:12.378Z,136.48
2023-05-08T02:16:42.031Z,148.93
2023-05-08T02:19:11.641Z,145.27
2023-05-08T02:21:41.870Z,139.27
2023-05-08T02:24:09.170Z,127.78
2023-05-08T02:26:37.694Z,135.93
2023-05-08T02:29:04.486Z,121.90
2023-05-08T02:31:31.699Z,125.05
2023-05-08T02:33:59.654Z,117.45
2023-05-08T02:36:28.977Z,131.43
2023-05-08T02:38:58.674Z,136.68
2023-05-08T02:41:29.714Z,130.38
2023-05-08T02:43:57.040Z,126.03
2023-05-08T02:46:49.386Z,126.72
2023-05-08T02:49:29.084Z,140.75
2023-05-08T02:52:18.453Z,125.65
2023-05-08T02:55:01.744Z,118.95
2023-05-08T02:57:46.889Z,133.82
2023-05-08T03:02:49.036Z,117.45
2023-05-08T03:05:19.502Z,115.68
2023-05-08T03:07:49.711Z,152.88
2023-05-08T03:10:18.449Z,172.80
2023-05-08T03:12:48.568Z,165.52
2023-05-08T03:15:28.338Z,166.18
2023-05-08T03:17:58.602Z,139.68
2023-05-08T03:20:28.357Z,183.00
2023-05-08T03:22:55.958Z,149.88
2023-05-08T03:25:23.492Z,154.27
2023-05-08T03:27:51.960Z,171.07
2023-05-08T03:30:20.562Z,172.63
2023-05-08T03:32:49.692Z,185.18
2023-05-08T03:35:17.192Z,198.95
2023-05-08T03:37:45.532Z,216.07
2023-05-08T03:40:12.923Z,241.40
2023-05-08T03:42:40.873Z,256.63
2023-05-08T03:45:10.690Z,223.50
2023-05-08T03:47:37.967Z,244.35
2023-05-08T03:50:05.426Z,178.40
2023-05-08T03:52:32.585Z,219.50
2023-05-08T03:54:59.331Z,218.55
2023-05-08T03:57:40.206Z,219.20
2023-05-08T04:00:13.592Z,224.32
2023-05-08T04:03:00.844Z,225.60
2023-05-08T04:05:50.076Z,212.23
2023-05-08T04:08:22.486Z,236.55
2023-05-08T04:11:09.736Z,247.15
2023-05-08T04:13:43.229Z,204.48
2023-05-08T04:16:26.920Z,221.07
2023-05-08T04:19:02.121Z,235.93
2023-05-08T04:21:31.416Z,238.05
2023-05-08T04:23:58.857Z,203.60
2023-05-08T04:26:25.924Z,221.90
2023-05-08T04:28:53.290Z,237.68
2023-05-08T04:31:20.072Z,224.30
2023-05-08T04:33:47.379Z,229.70
2023-05-08T04:36:14.782Z,242.02
2023-05-08T04:38:41.521Z,240.68
2023-05-08T04:41:08.664Z,243.77
2023-05-08T04:43:36.494Z,232.95
2023-05-08T04:46:05.282Z,255.40
2023-05-08T04:48:33.806Z,244.48
2023-05-08T04:51:00.902Z,242.38
2023-05-08T04:53:27.593Z,248.85
2023-05-08T04:55:54.252Z,260.83
2023-05-08T04:58:21.023Z,254.43
2023-05-08T05:00:48.869Z,235.40
2023-05-08T05:03:15.707Z,250.27
2023-05-08T05:05:42.548Z,246.68
2023-05-08T05:08:09.224Z,234.05
2023-05-08T05:10:35.936Z,258.75
2023-05-08T05:13:05.126Z,249.55
2023-05-08T05:15:31.785Z,226.65
2023-05-08T05:17:58.550Z,244.82
2023-05-08T05:20:25.212Z,234.07
2023-05-08T05:22:51.904Z,236.43
2023-05-08T05:25:18.645Z,239.48
2023-05-08T05:27:45.270Z,247.95
2023-05-08T05:30:12.662Z,221.88
2023-05-08T05:32:39.565Z,236.82
2023-05-08T05:35:06.840Z,227.25
2023-05-08T05:37:35.069Z,226.63
2023-05-08T05:40:01.902Z,222.27
2023-05-08T05:42:28.587Z,227.13
2023-05-08T05:44:56.877Z,226.68
2023-05-08T05:47:23.722Z,229.55
2023-05-08T05:49:50.377Z,225.98
2023-05-08T05:52:17.213Z,208.60
2023-05-08T05:54:43.868Z,210.10
2023-05-08T05:57:10.544Z,214.63
2023-05-08T05:59:37.295Z,231.50
2023-05-08T06:02:04.049Z,225.27
2023-05-08T06:04:30.808Z,227.65
2023-05-08T06:06:57.511Z,214.65
2023-05-08T06:09:24.275Z,229.20
2023-05-08T06:11:51.225Z,187.88
2023-05-08T06:14:17.858Z,227.75
2023-05-08T06:16:44.998Z,226.02
2023-05-08T06:19:12.107Z,222.90
2023-05-08T06:21:39.858Z,242.43
2023-05-08T06:24:06.935Z,241.48
2023-05-08T06:26:33.608Z,200.35
2023-05-08T06:29:00.248Z,232.77
2023-05-08T06:31:27.290Z,219.48
2023-05-08T06:33:54.004Z,230.65
2023-05-08T06:36:20.756Z,199.65
2023-05-08T06:38:47.425Z,227.05
2023-05-08T06:41:15.397Z,225.30
2023-05-08T06:43:42.293Z,199.75
2023-05-08T06:46:09.010Z,206.50
2023-05-08T06:48:35.822Z,178.73
2023-05-08T06:51:02.675Z,198.98
2023-05-08T06:53:29.374Z,192.77
2023-05-08T06:55:57.871Z,178.73
2023-05-08T06:58:24.848Z,194.77
2023-05-08T07:00:51.621Z,165.40
2023-05-08T07:03:18.275Z,168.80
2023-05-08T07:05:45.044Z,165.57
2023-05-08T07:08:11.689Z,136.07
2023-05-08T07:10:38.325Z,100.40
2023-05-08T07:13:05.199Z,122.72
2023-05-08T07:15:32.376Z,157.50
2023-05-08T07:17:59.101Z,154.48
2023-05-08T07:20:25.894Z,160.43
2023-05-08T07:22:52.688Z,117.18
2023-05-08T07:25:19.973Z,138.18
2023-05-08T07:27:46.716Z,134.15
2023-05-08T07:30:13.736Z,144.00
2023-05-08T07:32:40.646Z,141.95
2023-05-08T07:35:10.981Z,140.18
2023-05-08T07:37:41.456Z,149.55
2023-05-08T07:40:08.946Z,138.98
2023-05-08T07:42:42.720Z,131.70
2023-05-08T07:45:11.751Z,126.07
2023-05-08T07:47:39.757Z,114.43
2023-05-08T07:50:07.040Z,111.18
2023-05-08T07:52:33.778Z,129.77
2023-05-08T07:55:00.419Z,87.25
2023-05-08T07:57:27.027Z,121.18
2023-05-08T07:59:53.711Z,106.78
2023-05-08T08:02:20.418Z,110.85
2023-05-08T08:04:47.084Z,109.82
2023-05-08T08:07:14.807Z,109.85
2023-05-08T08:09:41.534Z,71.45
2023-05-08T08:12:08.232Z,87.38
2023-05-08T08:14:35.008Z,94.45
2023-05-08T08:17:01.731Z,87.85
2023-05-08T08:19:28.411Z,97.45
2023-05-08T08:21:55.012Z,75.90
2023-05-08T08:24:21.705Z,93.60
2023-05-08T08:26:48.323Z,62.92
2023-05-08T08:29:15.100Z,84.45
2023-05-08T08:31:41.794Z,75.05
2023-05-08T08:34:08.498Z,52.90
2023-05-08T08:36:35.220Z,52.25
2023-05-08T08:39:01.824Z,62.63
2023-05-08T08:41:28.533Z,77.00
2023-05-08T08:43:55.577Z,68.68
2023-05-08T08:46:26.351Z,98.80
2023-05-08T08:48:56.463Z,85.25
2023-05-08T08:51:28.885Z,66.90
2023-05-08T08:54:06.854Z,62.20
2023-05-08T08:56:36.069Z,73.40
2023-05-08T08:59:04.540Z,83.57
2023-05-08T09:01:34.290Z,88.32
2023-05-08T09:04:01.281Z,64.75
2023-05-08T09:06:29.020Z,64.60
2023-05-08T09:08:57.911Z,93.25
2023-05-08T09:11:24.868Z,94.55
2023-05-08T09:13:51.829Z,86.85
2023-05-08T09:16:18.851Z,65.32
2023-05-08T09:18:45.598Z,76.88
2023-05-08T09:21:12.826Z,86.38
2023-05-08T09:23:55.799Z,74.95
2023-05-08T09:26:37.051Z,89.70
2023-05-08T09:29:18.096Z,92.90
2023-05-08T09:31:46.928Z,100.82
2023-05-08T09:34:39.690Z,74.35
2023-05-08T09:37:06.338Z,87.30
2023-05-08T09:39:33.056Z,79.28
2023-05-08T09:42:01.073Z,90.07
2023-05-08T09:44:28.131Z,65.38
2023-05-08T09:47:13.117Z,77.45
2023-05-08T09:49:40.641Z,78.35
2023-05-08T09:52:08.293Z,70.15
2023-05-08T09:54:35.174Z,86.50
2023-05-08T09:57:12.308Z,68.78
2023-05-08T09:59:39.002Z,68.05
2023-05-08T10:02:12.846Z,63.63
2023-05-08T10:04:39.546Z,80.77
2023-05-08T10:07:06.234Z,81.38
2023-05-08T10:09:47.066Z,56.80
2023-05-08T10:12:16.664Z,45.17
2023-05-08T10:14:46.389Z,62.72
2023-05-08T10:17:16.835Z,70.05
2023-05-08T10:19:48.309Z,67.72
2023-05-08T10:22:15.786Z,49.28
2023-05-08T10:24:45.824Z,50.75
2023-05-08T10:27:30.408Z,49.38
2023-05-08T10:30:04.164Z,54.40
2023-05-08T10:32:43.153Z,54.57
2023-05-08T10:35:11.997Z,45.92
2023-05-08T10:37:39.935Z,57.58
2023-05-08T10:40:07.441Z,61.42
2023-05-08T10:42:37.532Z,32.60
2023-05-08T10:45:06.369Z,67.15
2023-05-08T10:48:03.563Z,56.72
2023-05-08T10:50:58.050Z,64.95
2023-05-08T10:53:51.805Z,51.40
2023-05-08T10:56:18.509Z,56.17
2023-05-08T10:58:45.392Z,49.97
2023-05-08T11:01:13.491Z,32.08
2023-05-08T11:03:48.159Z,40.60
2023-05-08T11:06:15.336Z,41.88
2023-05-08T11:08:54.493Z,56.45
2023-05-08T11:11:26.838Z,49.47
2023-05-08T11:14:09.409Z,61.22
2023-05-08T11:16:54.264Z,43.47
2023-05-08T11:19:26.930Z,56.97
2023-05-08T11:22:29.073Z,45.30
2023-05-08T11:24:56.950Z,53.95
2023-05-08T11:27:35.636Z,52.05
2023-05-08T11:30:19.603Z,49.38
2023-05-08T11:33:04.897Z,43.63
2023-05-08T11:35:54.017Z,56.55
2023-05-08T11:38:22.191Z,56.20
2023-05-08T11:41:06.112Z,54.72
2023-05-08T11:43:41.642Z,56.23
2023-05-08T11:46:19.473Z,56.15
2023-05-08T11:48:46.373Z,45.25
2023-05-08T11:51:13.768Z,39.00
2023-05-08T11:53:40.869Z,55.58
2023-05-08T11:56:08.141Z,41.33
2023-05-08T11:58:36.537Z,56.33
2023-05-08T12:01:03.592Z,52.22
2023-05-08T12:03:30.643Z,38.72
2023-05-08T12:05:59.190Z,41.78
2023-05-08T12:08:26.209Z,38.65
2023-05-08T12:10:54.052Z,38.47
2023-05-08T12:13:25.959Z,36.15
2023-05-08T12:15:57.614Z,38.35
2023-05-08T12:18:26.717Z,47.20
2023-05-08T12:20:56.917Z,46.65
2023-05-08T12:23:25.981Z,44.45
2023-05-08T12:25:56.488Z,41.42
2023-05-08T12:28:23.120Z,41.28
2023-05-08T12:30:50.352Z,45.35
2023-05-08T12:33:18.494Z,47.90
2023-05-08T12:35:45.258Z,47.40
2023-05-08T12:38:12.226Z,50.85
2023-05-08T12:40:43.916Z,40.22
2023-05-08T12:43:11.269Z,62.13
2023-05-08T12:45:40.026Z,57.88
2023-05-08T12:48:13.402Z,47.42
2023-05-08T12:50:44.675Z,61.33
2023-05-08T12:53:13.644Z,58.70
2023-05-08T12:55:51.853Z,87.53
2023-05-08T12:58:19.642Z,89.35
2023-05-08T13:00:48.397Z,117.55
2023-05-08T13:03:26.661Z,107.53
2023-05-08T13:05:55.124Z,86.53
2023-05-08T13:08:33.686Z,110.95
2023-05-08T13:11:01.577Z,113.18
2023-05-08T13:13:30.793Z,107.60
2023-05-08T13:15:58.125Z,122.03
2023-05-08T13:18:28.093Z,110.45
2023-05-08T13:20:58.104Z,98.32
2023-05-08T13:23:24.885Z,131.32
2023-05-08T13:25:51.622Z,98.43
2023-05-08T13:28:18.309Z,104.90
2023-05-08T13:30:44.958Z,92.45
2023-05-08T13:33:11.620Z,80.82
2023-05-08T13:35:38.333Z,86.38
2023-05-08T13:38:05.962Z,74.82
2023-05-08T13:40:32.678Z,80.43
2023-05-08T13:42:59.284Z,67.22
2023-05-08T13:45:26.033Z,40.72
2023-05-08T13:47:52.895Z,61.33
2023-05-08T13:50:21.771Z,79.18
2023-05-08T13:52:49.053Z,67.38
2023-05-08T13:55:16.505Z,70.30
2023-05-08T13:57:43.456Z,66.05
2023-05-08T14:00:11.126Z,63.35
2023-05-08T14:02:38.325Z,66.55
2023-05-08T14:05:07.952Z,57.28
2023-05-08T14:07:35.627Z,50.55
2023-05-08T14:10:02.537Z,58.25
2023-05-08T14:12:29.495Z,59.55
2023-05-08T14:14:56.458Z,52.10
2023-05-08T14:17:23.197Z,50.88
2023-05-08T14:19:49.892Z,58.40
2023-05-08T14:22:16.589Z,47.42
2023-05-08T14:24:44.173Z,50.15
2023-05-08T14:27:11.137Z,57.83
2023-05-08T14:29:38.047Z,51.00
2023-05-08T14:32:05.193Z,56.22
2023-05-08T14:34:32.018Z,31.52
2023-05-08T14:36:58.864Z,42.85
2023-05-08T14:39:25.765Z,32.22
2023-05-08T14:42:17.793Z,32.53
2023-05-08T14:44:39.446Z,46.30
2023-05-08T14:47:06.569Z,45.75
2023-05-08T14:49:38.084Z,51.85
2023-05-08T14:52:06.308Z,35.80
2023-05-08T14:54:33.588Z,40.88
2023-05-08T14:57:00.609Z,35.47
2023-05-08T14:59:27.238Z,39.58
2023-05-08T15:01:54.089Z,35.13
2023-05-08T15:04:20.970Z,34.78
2023-05-08T15:06:47.803Z,38.97
2023-05-08T15:09:16.462Z,36.15
2023-05-08T15:11:43.264Z,32.75
2023-05-08T15:14:09.945Z,33.67
2023-05-08T15:16:36.814Z,31.38
2023-05-08T15:19:03.522Z,34.78
2023-05-08T15:21:30.283Z,27.67
2023-05-08T15:23:56.897Z,22.88
2023-05-08T15:26:23.650Z,40.20
2023-05-08T15:28:50.974Z,29.90
2023-05-08T15:31:18.343Z,31.70
2023-05-08T15:33:45.559Z,25.30
2023-05-08T15:36:15.828Z,29.38
2023-05-08T15:38:42.950Z,22.42
2023-05-08T15:41:14.666Z,30.42
2023-05-08T15:43:42.171Z,30.52
2023-05-08T15:46:08.951Z,21.92
2023-05-08T15:48:35.682Z,21.75
2023-05-08T15:51:02.412Z,31.10
2023-05-08T15:53:29.049Z,35.40
2023-05-08T15:55:56.979Z,30.63
2023-05-08T15:58:23.881Z,25.83
2023-05-08T16:00:50.709Z,30.10
2023-05-08T16:03:17.752Z,39.92
2023-05-08T16:05:44.784Z,38.47
2023-05-08T16:08:12.809Z,37.88
2023-05-08T16:10:42.932Z,39.72
2023-05-08T16:13:09.914Z,39.97
2023-05-08T16:15:36.706Z,29.55
2023-05-08T16:18:03.581Z,45.05
2023-05-08T16:20:31.114Z,37.83
2023-05-08T16:22:59.660Z,45.90
2023-05-08T16:25:26.378Z,48.58
2023-05-08T16:27:53.105Z,53.00
2023-05-08T16:30:19.983Z,49.58
2023-05-08T16:32:46.960Z,46.42
2023-05-08T16:35:14.631Z,52.83
2023-05-08T16:37:41.815Z,48.35
2023-05-08T16:40:09.467Z,50.35
2023-05-08T16:42:36.869Z,43.17
2023-05-08T16:45:06.802Z,52.58
2023-05-08T16:47:34.406Z,42.92
2023-05-08T16:50:01.264Z,44.33
2023-05-08T16:52:28.437Z,41.15
2023-05-08T16:54:55.199Z,46.72
2023-05-08T16:57:21.939Z,48.10
2023-05-08T16:59:48.513Z,49.33
2023-05-08T17:02:18.698Z,49.92
2023-05-08T17:04:49.466Z,43.35
2023-05-08T17:07:17.160Z,40.55
2023-05-08T17:09:44.142Z,47.53
2023-05-08T17:12:10.928Z,40.25
2023-05-08T17:14:39.401Z,41.20
2023-05-08T17:17:06.896Z,38.80
2023-05-08T17:19:33.761Z,39.40
2023-05-08T17:22:00.513Z,36.35
2023-05-08T17:24:29.070Z,34.65
2023-05-08T17:26:55.841Z,36.85
2023-05-08T17:29:22.528Z,34.80
2023-05-08T17:31:49.282Z,35.40
2023-05-08T17:34:16.052Z,35.88
2023-05-08T17:36:42.740Z,30.40
2023-05-08T17:39:09.628Z,43.53
2023-05-08T17:41:36.493Z,39.22
2023-05-08T17:44:04.212Z,39.72
2023-05-08T17:46:30.968Z,42.78
2023-05-08T17:48:57.605Z,40.50
2023-05-08T17:51:24.347Z,45.00
2023-05-08T17:53:52.961Z,45.03
2023-05-08T17:56:21.272Z,43.97
2023-05-08T17:58:47.913Z,47.53
2023-05-08T18:01:14.748Z,45.22
2023-05-08T18:03:41.891Z,44.53
2023-05-08T18:06:08.639Z,39.10
2023-05-08T18:08:35.426Z,44.78
2023-05-08T18:11:02.082Z,55.50
2023-05-08T18:13:28.826Z,55.05
2023-05-08T18:15:55.512Z,43.65
2023-05-08T18:18:22.261Z,51.22
2023-05-08T18:20:48.920Z,57.03
2023-05-08T18:23:15.918Z,55.25
2023-05-08T18:25:42.824Z,52.17
2023-05-08T18:28:09.471Z,55.33
2023-05-08T18:30:38.128Z,50.25
2023-05-08T18:33:04.757Z,52.20
2023-05-08T18:35:31.635Z,52.38
2023-05-08T18:37:58.236Z,49.28
2023-05-08T18:40:25.004Z,47.55
2023-05-08T18:42:51.704Z,45.67
2023-05-08T18:45:18.522Z,47.05
2023-05-08T18:47:45.181Z,47.30
2023-05-08T18:50:12.172Z,48.20
2023-05-08T18:52:39.191Z,45.85
2023-05-08T18:55:06.379Z,48.72
2023-05-08T18:57:33.074Z,49.78
2023-05-08T18:59:59.697Z,46.90
2023-05-08T19:02:27.973Z,47.92
2023-05-08T19:04:54.788Z,39.75
2023-05-08T19:07:21.582Z,39.13
2023-05-08T19:09:48.298Z,47.25
2023-05-08T19:12:15.014Z,42.15
2023-05-08T19:14:41.694Z,41.80
2023-05-08T19:17:08.323Z,45.75
2023-05-08T19:19:35.020Z,43.92
2023-05-08T19:22:01.676Z,45.92
2023-05-08T19:24:29.874Z,52.00
2023-05-08T19:26:57.522Z,40.42
2023-05-08T19:29:24.342Z,47.67
2023-05-08T19:31:51.207Z,46.78
2023-05-08T19:34:18.115Z,40.13
2023-05-08T19:36:44.749Z,48.22
2023-05-08T19:39:11.341Z,45.40
2023-05-08T19:41:37.978Z,52.30
2023-05-08T19:44:04.622Z,49.45
2023-05-08T19:46:31.338Z,52.75
2023-05-08T19:48:58.036Z,49.25
2023-05-08T19:51:24.896Z,45.53
2023-05-08T19:53:51.527Z,47.78
2023-05-08T19:56:18.173Z,49.13
2023-05-08T19:58:44.866Z,44.08
2023-05-08T20:01:11.590Z,50.67
2023-05-08T20:03:38.421Z,50.05
2023-05-08T20:06:05.369Z,46.92
2023-05-08T20:08:32.059Z,46.78
2023-05-08T20:11:02.303Z,50.83
2023-05-08T20:13:28.932Z,50.03
2023-05-08T20:15:55.705Z,48.28
2023-05-08T20:18:22.372Z,40.00
2023-05-08T20:20:49.007Z,48.50
2023-05-08T20:23:15.781Z,46.97
2023-05-08T20:25:46.100Z,52.90
2023-05-08T20:28:12.710Z,51.60
2023-05-08T20:30:39.475Z,49.92
2023-05-08T20:33:06.248Z,50.47
2023-05-08T20:35:33.689Z,56.47
2023-05-08T20:38:00.486Z,56.40
2023-05-08T20:40:27.180Z,53.20
2023-05-08T20:42:53.791Z,56.30
2023-05-08T20:45:20.421Z,51.35
2023-05-08T20:47:47.351Z,56.75
2023-05-08T20:50:16.158Z,56.17
2023-05-08T20:52:43.140Z,58.40
2023-05-08T20:55:10.151Z,55.90
2023-05-08T20:57:38.872Z,57.92
2023-05-08T21:00:06.368Z,59.55
2023-05-08T21:02:33.827Z,57.30
2023-05-08T21:05:00.788Z,64.03
2023-05-08T21:07:27.474Z,61.20
2023-05-08T21:09:54.062Z,67.03
2023-05-08T21:12:20.752Z,63.22
2023-05-08T21:14:47.414Z,69.65
2023-05-08T21:17:14.129Z,60.65
2023-05-08T21:19:40.837Z,64.43
2023-05-08T21:22:09.261Z,65.88
2023-05-08T21:24:37.183Z,61.92
2023-05-08T21:27:03.973Z,65.75
2023-05-08T21:29:30.607Z,69.97
2023-05-08T21:31:57.391Z,61.42
2023-05-08T21:34:24.214Z,60.67
2023-05-08T21:36:50.918Z,60.78
2023-05-08T21:39:17.580Z,67.07
2023-05-08T21:41:44.610Z,55.80
2023-05-08T21:44:15.319Z,58.28
2023-05-08T21:46:42.053Z,61.08
2023-05-08T21:49:08.673Z,64.80
2023-05-08T21:51:35.631Z,59.03
2023-05-08T21:54:02.260Z,64.13
2023-05-08T21:56:28.905Z,68.32
2023-05-08T21:58:55.679Z,59.83
2023-05-08T22:01:22.457Z,62.42
2023-05-08T22:03:49.476Z,66.65
2023-05-08T22:06:16.193Z,64.78
2023-05-08T22:08:42.868Z,64.63
2023-05-08T22:11:09.637Z,65.68
2023-05-08T22:13:36.539Z,61.72
2023-05-08T22:16:03.440Z,69.57
2023-05-08T22:18:30.118Z,71.90
2023-05-08T22:20:56.858Z,65.72
2023-05-08T22:23:23.518Z,59.55
2023-05-08T22:25:51.590Z,63.38
2023-05-08T22:28:18.234Z,55.53
2023-05-08T22:30:44.934Z,60.90
2023-05-08T22:33:11.571Z,59.47
2023-05-08T22:35:38.317Z,56.20
2023-05-08T22:38:04.973Z,50.67
2023-05-08T22:40:31.740Z,43.30
2023-05-08T22:42:59.020Z,37.60
2023-05-08T22:45:26.968Z,38.97
2023-05-08T22:47:54.554Z,38.65
2023-05-08T22:50:21.504Z,36.63
2023-05-08T22:52:48.156Z,35.83
2023-05-08T22:55:15.723Z,36.95
2023-05-08T22:57:42.798Z,27.83
2023-05-08T23:00:10.316Z,33.63
2023-05-08T23:02:37.027Z,24.65
2023-05-08T23:05:03.968Z,30.15
2023-05-08T23:07:30.781Z,38.97
2023-05-08T23:09:57.492Z,28.08
2023-05-08T23:12:24.172Z,33.10
2023-05-08T23:14:51.476Z,31.33
2023-05-08T23:17:18.128Z,31.88
2023-05-08T23:19:45.527Z,34.17
2023-05-08T23:22:12.272Z,29.88
2023-05-08T23:24:38.985Z,35.15
2023-05-08T23:27:05.711Z,35.15
2023-05-08T23:29:32.333Z,34.47
2023-05-08T23:31:59.648Z,30.13
2023-05-08T23:34:26.264Z,30.45
2023-05-08T23:36:53.048Z,32.88
2023-05-08T23:39:19.752Z,35.33
2023-05-08T23:41:46.393Z,37.28
2023-05-08T23:44:13.133Z,38.58
2023-05-08T23:46:39.842Z,40.22
2023-05-08T23:49:07.104Z,40.78
2023-05-08T23:51:34.117Z,42.38
2023-05-08T23:54:01.089Z,40.00
2023-05-08T23:56:27.756Z,37.00
2023-05-08T23:58:54.386Z,42.17
